Time,TemperatureF,DewpointF,PressureIn,WindDirection,WindDirectionDegrees,WindSpeedMPH,WindSpeedGustMPH,Humidity,HourlyPrecipIn,Conditions,Clouds,dailyrainin,SoftwareType,DateUTC
2013-12-19 00:01:00,30.4,16.2,30.29,SSW,202,2.0,2.0,55,0.00,,FEW250,0.00,VWS V14.01,2013-12-19 05:01:00,
2013-12-19 00:06:00,30.2,16.4,30.29,SSW,202,2.0,2.0,56,0.00,,FEW250,0.00,VWS V14.01,2013-12-19 05:06:00,
2013-12-19 00:11:00,30.2,16.4,30.29,SSW,202,2.0,2.0,56,0.00,,FEW250,0.00,VWS V14.01,2013-12-19 05:11:00,
2013-12-19 00:16:00,30.1,15.9,30.29,SSW,202,2.0,2.0,55,0.00,,FEW250,0.00,VWS V14.01,2013-12-19 05:16:00,
2013-12-19 00:21:00,30.1,15.9,30.29,SSW,202,2.0,2.0,55,0.00,,FEW250,0.00,VWS V14.01,2013-12-19 05:21:00,
2013-12-19 00:26:00,30.1,15.9,30.30,SSW,202,2.0,2.0,55,0.00,,FEW250,0.00,VWS V14.01,2013-12-19 05:26:00,
2013-12-19 00:31:00,29.9,15.3,30.30,SSW,202,2.0,2.0,54,0.00,,FEW250,0.00,VWS V14.01,2013-12-19 05:31:00,
2013-12-19 00:36:00,29.9,15.3,30.30,SSW,202,2.0,2.0,54,0.00,,FEW250,0.00,VWS V14.01,2013-12-19 05:36:00,
2013-12-19 00:41:00,29.9,14.9,30.29,SSW,202,2.0,2.0,53,0.00,,FEW250,0.00,VWS V14.01,2013-12-19 05:41:00,
2013-12-19 00:46:00,29.9,14.9,30.29,SSW,202,2.0,2.0,53,0.00,,FEW250,0.00,VWS V14.01,2013-12-19 05:46:00,
2013-12-19 00:51:00,29.9,14.9,30.29,SSW,202,2.0,2.0,53,0.00,,FEW250,0.00,VWS V14.01,2013-12-19 05:51:00,
2013-12-19 00:56:00,29.9,14.4,30.29,SSW,202,2.0,2.0,52,0.00,,FEW250,0.00,VWS V14.01,2013-12-19 05:56:00,
2013-12-19 01:01:00,29.9,14.4,30.29,SSW,202,2.0,2.0,52,0.00,,FEW250,0.00,VWS V14.01,2013-12-19 06:01:00,
2013-12-19 01:06:00,29.7,14.2,30.29,SSW,202,2.0,2.0,52,0.00,,FEW250,0.00,VWS V14.01,2013-12-19 06:06:00,
2013-12-19 01:11:00,29.7,14.2,30.29,SSW,202,2.0,2.0,52,0.00,,FEW250,0.00,VWS V14.01,2013-12-19 06:11:00,
2013-12-19 01:16:00,29.5,14.1,30.29,SSW,202,2.0,2.0,52,0.00,,FEW250,0.00,VWS V14.01,2013-12-19 06:16:00,
2013-12-19 01:21:00,29.5,14.1,30.29,SSW,202,2.0,2.0,52,0.00,,FEW250,0.00,VWS V14.01,2013-12-19 06:21:00,
2013-12-19 01:26:00,29.3,13.9,30.29,SSW,202,2.0,2.0,52,0.00,,FEW250,0.00,VWS V14.01,2013-12-19 06:26:00,
2013-12-19 01:31:00,29.3,13.9,30.29,SSW,202,2.0,2.0,52,0.00,,FEW250,0.00,VWS V14.01,2013-12-19 06:31:00,
2013-12-19 01:36:00,29.2,13.8,30.29,SSW,202,2.0,2.0,52,0.00,,FEW250,0.00,VWS V14.01,2013-12-19 06:36:00,
2013-12-19 01:41:00,29.2,13.8,30.29,SSW,202,2.0,2.0,52,0.00,,FEW250,0.00,VWS V14.01,2013-12-19 06:41:00,
2013-12-19 01:46:00,29.2,13.3,30.29,SSW,202,2.0,2.0,51,0.00,,FEW250,0.00,VWS V14.01,2013-12-19 06:46:00,
2013-12-19 01:51:00,29.2,13.3,30.29,SSW,202,2.0,2.0,51,0.00,,FEW250,0.00,VWS V14.01,2013-12-19 06:51:00,
2013-12-19 01:56:00,29.2,13.3,30.29,SSW,202,2.0,2.0,51,0.00,,CLR,0.00,VWS V14.01,2013-12-19 06:56:00,
2013-12-19 02:01:00,29.2,12.9,30.29,SSW,202,2.0,2.0,50,0.00,,CLR,0.00,VWS V14.01,2013-12-19 07:01:00,
2013-12-19 02:06:00,29.2,12.9,30.29,SSW,202,2.0,2.0,50,0.00,,CLR,0.00,VWS V14.01,2013-12-19 07:06:00,
2013-12-19 02:11:00,29.0,12.7,30.29,SSW,202,2.0,2.0,50,0.00,,CLR,0.00,VWS V14.01,2013-12-19 07:11:00,
2013-12-19 02:16:00,28.8,12.1,30.28,SSW,202,2.0,2.0,49,0.00,,CLR,0.00,VWS V14.01,2013-12-19 07:16:00,
2013-12-19 02:21:00,28.8,11.6,30.28,SSW,202,2.0,2.0,48,0.00,,CLR,0.00,VWS V14.01,2013-12-19 07:21:00,
2013-12-19 02:26:00,28.8,11.6,30.29,SSW,202,2.0,2.0,48,0.00,,CLR,0.00,VWS V14.01,2013-12-19 07:26:00,
2013-12-19 02:31:00,28.6,11.4,30.28,SSW,202,2.0,2.0,48,0.00,,CLR,0.00,VWS V14.01,2013-12-19 07:31:00,
2013-12-19 02:36:00,28.6,11.4,30.28,SSW,202,2.0,2.0,48,0.00,,CLR,0.00,VWS V14.01,2013-12-19 07:36:00,
2013-12-19 02:41:00,28.6,10.9,30.29,SSW,202,2.0,2.0,47,0.00,,CLR,0.00,VWS V14.01,2013-12-19 07:41:00,
2013-12-19 02:46:00,28.6,11.4,30.28,SSW,202,2.0,2.0,48,0.00,,CLR,0.00,VWS V14.01,2013-12-19 07:46:00,
2013-12-19 02:51:00,28.4,10.8,30.28,SSW,202,2.0,2.0,47,0.00,,CLR,0.00,VWS V14.01,2013-12-19 07:51:00,
2013-12-19 02:56:00,28.6,10.5,30.28,SSW,202,2.0,2.0,46,0.00,,FEW250,0.00,VWS V14.01,2013-12-19 07:56:00,
2013-12-19 03:01:00,28.4,10.3,30.28,SSW,202,2.0,2.0,46,0.00,,FEW250,0.00,VWS V14.01,2013-12-19 08:01:00,
2013-12-19 03:06:00,28.4,10.3,30.28,SSW,202,2.0,2.0,46,0.00,,FEW250,0.00,VWS V14.01,2013-12-19 08:06:00,
2013-12-19 03:11:00,28.4,9.8,30.29,SSW,202,2.0,2.0,45,0.00,,FEW250,0.00,VWS V14.01,2013-12-19 08:11:00,
2013-12-19 03:16:00,28.4,9.8,30.29,SSW,202,2.0,2.0,45,0.00,,FEW250,0.00,VWS V14.01,2013-12-19 08:16:00,
2013-12-19 03:21:00,28.4,10.3,30.29,SSW,202,2.0,2.0,46,0.00,,FEW250,0.00,VWS V14.01,2013-12-19 08:21:00,
2013-12-19 03:26:00,28.3,9.7,30.29,SSW,202,2.0,2.0,45,0.00,,FEW250,0.00,VWS V14.01,2013-12-19 08:26:00,
2013-12-19 03:31:00,28.3,9.7,30.29,SSW,202,2.0,2.0,45,0.00,,FEW250,0.00,VWS V14.01,2013-12-19 08:31:00,
2013-12-19 03:36:00,28.3,9.7,30.29,SSW,202,2.0,2.0,45,0.00,,FEW250,0.00,VWS V14.01,2013-12-19 08:36:00,
2013-12-19 03:41:00,28.3,8.7,30.29,SSW,202,2.0,2.0,43,0.00,,FEW250,0.00,VWS V14.01,2013-12-19 08:41:00,
2013-12-19 03:46:00,28.3,8.7,30.29,SSW,202,2.0,2.0,43,0.00,,FEW250,0.00,VWS V14.01,2013-12-19 08:46:00,
2013-12-19 03:51:00,28.3,8.7,30.29,SSW,202,2.0,2.0,43,0.00,,FEW250,0.00,VWS V14.01,2013-12-19 08:51:00,
2013-12-19 03:56:00,28.1,8.5,30.29,SSW,202,2.0,2.0,43,0.00,,FEW250,0.00,VWS V14.01,2013-12-19 08:56:00,
2013-12-19 04:01:00,28.1,7.4,30.29,SSW,202,2.0,2.0,41,0.00,,FEW250,0.00,VWS V14.01,2013-12-19 09:01:00,
2013-12-19 04:06:00,28.1,8.0,30.29,SSW,202,2.0,2.0,42,0.00,,FEW250,0.00,VWS V14.01,2013-12-19 09:06:00,
2013-12-19 04:11:00,28.1,7.4,30.28,SSW,202,2.0,2.0,41,0.00,,FEW250,0.00,VWS V14.01,2013-12-19 09:11:00,
2013-12-19 04:16:00,27.9,7.3,30.29,SSW,202,2.0,2.0,41,0.00,,FEW250,0.00,VWS V14.01,2013-12-19 09:16:00,
2013-12-19 04:21:00,27.9,7.8,30.29,SSW,202,2.0,2.0,42,0.00,,FEW250,0.00,VWS V14.01,2013-12-19 09:21:00,
2013-12-19 04:26:00,27.9,6.2,30.28,SSW,202,2.0,2.0,39,0.00,,FEW250,0.00,VWS V14.01,2013-12-19 09:26:00,
2013-12-19 04:31:00,27.9,7.3,30.28,SSW,202,2.0,2.0,41,0.00,,FEW250,0.00,VWS V14.01,2013-12-19 09:31:00,
2013-12-19 04:36:00,27.9,5.0,30.28,SSW,202,2.0,2.0,37,0.00,,FEW250,0.00,VWS V14.01,2013-12-19 09:36:00,
2013-12-19 04:41:00,27.7,5.4,30.28,SSW,202,2.0,2.0,38,0.00,,FEW250,0.00,VWS V14.01,2013-12-19 09:41:00,
2013-12-19 04:46:00,27.7,6.0,30.28,SSW,202,2.0,2.0,39,0.00,,FEW250,0.00,VWS V14.01,2013-12-19 09:46:00,
2013-12-19 04:51:00,27.7,6.0,30.29,SSW,202,2.0,2.0,39,0.00,,FEW250,0.00,VWS V14.01,2013-12-19 09:51:00,
2013-12-19 04:56:00,27.7,5.4,30.29,SSW,202,2.0,2.0,38,0.00,,FEW250,0.00,VWS V14.01,2013-12-19 09:56:00,
2013-12-19 05:01:00,27.7,6.0,30.29,SSW,202,2.0,2.0,39,0.00,,FEW250,0.00,VWS V14.01,2013-12-19 10:01:00,
2013-12-19 05:06:00,27.5,5.8,30.29,SSW,202,2.0,2.0,39,0.00,,FEW250,0.00,VWS V14.01,2013-12-19 10:06:00,
2013-12-19 05:11:00,27.5,5.2,30.30,SSW,202,2.0,2.0,38,0.00,,FEW250,0.00,VWS V14.01,2013-12-19 10:11:00,
2013-12-19 05:16:00,27.5,5.8,30.30,SSW,202,2.0,2.0,39,0.00,,FEW250,0.00,VWS V14.01,2013-12-19 10:16:00,
2013-12-19 05:21:00,27.5,4.7,30.29,SSW,202,2.0,2.0,37,0.00,,FEW250,0.00,VWS V14.01,2013-12-19 10:21:00,
2013-12-19 05:26:00,27.5,4.7,30.30,SSW,202,2.0,2.0,37,0.00,,FEW250,0.00,VWS V14.01,2013-12-19 10:26:00,
2013-12-19 05:31:00,27.5,4.7,30.30,SSW,202,2.0,2.0,37,0.00,,FEW250,0.00,VWS V14.01,2013-12-19 10:31:00,
2013-12-19 05:36:00,27.5,4.7,30.30,SSW,202,2.0,2.0,37,0.00,,FEW250,0.00,VWS V14.01,2013-12-19 10:36:00,
2013-12-19 05:41:00,27.4,4.6,30.30,SSW,202,2.0,2.0,37,0.00,,FEW250,0.00,VWS V14.01,2013-12-19 10:41:00,
2013-12-19 05:46:00,27.2,4.4,30.30,SSW,202,2.0,2.0,37,0.00,,FEW250,0.00,VWS V14.01,2013-12-19 10:46:00,
2013-12-19 05:51:00,27.2,4.4,30.30,SSW,202,2.0,2.0,37,0.00,,FEW250,0.00,VWS V14.01,2013-12-19 10:51:00,
2013-12-19 05:56:00,27.2,4.4,30.30,SSW,202,2.0,2.0,37,0.00,,CLR,0.00,VWS V14.01,2013-12-19 10:56:00,
2013-12-19 06:01:00,27.2,4.4,30.30,SSW,202,2.0,2.0,37,0.00,,CLR,0.00,VWS V14.01,2013-12-19 11:01:00,
2013-12-19 06:06:00,27.2,4.4,30.30,SSW,202,2.0,2.0,37,0.00,,CLR,0.00,VWS V14.01,2013-12-19 11:06:00,
2013-12-19 06:11:00,27.2,4.4,30.30,SSW,202,2.0,2.0,37,0.00,,CLR,0.00,VWS V14.01,2013-12-19 11:11:00,
2013-12-19 06:16:00,27.2,3.8,30.30,SSW,202,2.0,2.0,36,0.00,,CLR,0.00,VWS V14.01,2013-12-19 11:16:00,
2013-12-19 06:21:00,27.2,3.2,30.30,SSW,202,2.0,2.0,35,0.00,,CLR,0.00,VWS V14.01,2013-12-19 11:21:00,
2013-12-19 06:26:00,27.2,3.2,30.30,SSW,202,2.0,2.0,35,0.00,,CLR,0.00,VWS V14.01,2013-12-19 11:26:00,
2013-12-19 06:31:00,27.2,3.2,30.29,SSW,202,2.0,2.0,35,0.00,,CLR,0.00,VWS V14.01,2013-12-19 11:31:00,
2013-12-19 06:36:00,27.0,1.7,30.30,SSW,202,2.0,2.0,33,0.00,,CLR,0.00,VWS V14.01,2013-12-19 11:36:00,
2013-12-19 06:41:00,27.0,1.7,30.30,SSW,202,2.0,2.0,33,0.00,,CLR,0.00,VWS V14.01,2013-12-19 11:41:00,
2013-12-19 06:46:00,27.0,1.7,30.30,SSW,202,2.0,2.0,33,0.00,,CLR,0.00,VWS V14.01,2013-12-19 11:46:00,
2013-12-19 06:51:00,27.0,1.7,30.30,SSW,202,2.0,2.0,33,0.00,,CLR,0.00,VWS V14.01,2013-12-19 11:51:00,
2013-12-19 06:56:00,27.2,1.3,30.31,SSW,202,2.0,2.0,32,0.00,,FEW250,0.00,VWS V14.01,2013-12-19 11:56:00,
2013-12-19 07:01:00,27.2,1.3,30.31,SSW,202,2.0,2.0,32,0.00,,FEW250,0.00,VWS V14.01,2013-12-19 12:01:00,
2013-12-19 07:06:00,27.4,1.4,30.31,SSW,202,2.0,2.0,32,0.00,,FEW250,0.00,VWS V14.01,2013-12-19 12:06:00,
2013-12-19 07:11:00,27.4,0.8,30.31,SSW,202,2.0,2.0,31,0.00,,FEW250,0.00,VWS V14.01,2013-12-19 12:11:00,
2013-12-19 07:16:00,27.5,0.8,30.31,SSW,202,2.0,2.0,31,0.00,,FEW250,0.00,VWS V14.01,2013-12-19 12:16:00,
2013-12-19 07:21:00,27.5,0.2,30.31,SSW,202,2.0,2.0,30,0.00,,FEW250,0.00,VWS V14.01,2013-12-19 12:21:00,
2013-12-19 07:26:00,27.7,0.3,30.31,SSW,202,2.0,2.0,30,0.00,,FEW250,0.00,VWS V14.01,2013-12-19 12:26:00,
2013-12-19 07:31:00,27.7,0.3,30.31,SSW,202,2.0,2.0,30,0.00,,FEW250,0.00,VWS V14.01,2013-12-19 12:31:00,
2013-12-19 07:36:00,27.5,0.2,30.31,SSW,202,2.0,2.0,30,0.00,,FEW250,0.00,VWS V14.01,2013-12-19 12:36:00,
2013-12-19 07:41:00,27.7,-0.4,30.31,SSW,202,2.0,2.0,29,0.00,,FEW250,0.00,VWS V14.01,2013-12-19 12:41:00,
2013-12-19 07:46:00,27.7,-1.1,30.31,SSW,202,2.0,2.0,28,0.00,,FEW250,0.00,VWS V14.01,2013-12-19 12:46:00,
2013-12-19 07:51:00,27.7,-1.9,30.32,SSW,202,2.0,2.0,27,0.00,,FEW250,0.00,VWS V14.01,2013-12-19 12:51:00,
2013-12-19 07:55:00,27.9,-1.7,30.32,SSW,202,2.0,2.0,27,0.00,,FEW250,0.00,VWS V14.01,2013-12-19 12:55:00,
2013-12-19 08:00:00,27.9,-1.0,30.32,SSW,202,2.0,2.0,28,0.00,,FEW250,0.00,VWS V14.01,2013-12-19 13:00:00,
2013-12-19 08:05:00,28.3,-1.4,30.32,SSW,202,2.0,2.0,27,0.00,,FEW250,0.00,VWS V14.01,2013-12-19 13:05:00,
2013-12-19 08:10:00,28.4,-2.1,30.32,SSW,202,2.0,2.0,26,0.00,,FEW250,0.00,VWS V14.01,2013-12-19 13:10:00,
2013-12-19 08:15:00,28.8,-1.8,30.32,SSW,202,2.0,2.0,26,0.00,,FEW250,0.00,VWS V14.01,2013-12-19 13:15:00,
2013-12-19 08:20:00,29.2,-4.9,30.32,SSW,202,2.0,2.0,22,0.00,,FEW250,0.00,VWS V14.01,2013-12-19 13:20:00,
2013-12-19 08:25:00,29.7,-4.5,30.33,SSW,202,2.0,2.0,22,0.00,,FEW250,0.00,VWS V14.01,2013-12-19 13:25:00,
2013-12-19 08:30:00,29.9,-5.3,30.33,SSW,202,2.0,2.0,21,0.00,,FEW250,0.00,VWS V14.01,2013-12-19 13:30:00,
2013-12-19 08:35:00,30.4,-5.9,30.33,SSW,202,2.0,2.0,20,0.00,,FEW250,0.00,VWS V14.01,2013-12-19 13:35:00,
2013-12-19 08:40:00,31.0,-7.5,30.33,SSW,202,2.0,2.0,18,0.00,,FEW250,0.00,VWS V14.01,2013-12-19 13:40:00,
2013-12-19 08:45:00,31.7,-9.4,30.33,SSW,202,2.0,2.0,16,0.00,,FEW250,0.00,VWS V14.01,2013-12-19 13:45:00,
2013-12-19 08:50:00,32.8,-14.2,30.33,SSW,202,2.0,2.0,12,0.00,,FEW250,0.00,VWS V14.01,2013-12-19 13:50:00,
2013-12-19 08:55:00,34.0,-11.7,30.33,SSW,202,2.0,2.0,13,0.00,,FEW250,0.00,VWS V14.01,2013-12-19 13:55:00,
2013-12-19 09:00:00,34.9,-8.1,30.33,SSW,202,2.0,2.0,15,0.00,,FEW250,0.00,VWS V14.01,2013-12-19 14:00:00,
2013-12-19 09:05:00,36.0,-3.4,30.33,SW,225,2.4,2.4,18,0.00,,FEW250,0.00,VWS V14.01,2013-12-19 14:05:00,
2013-12-19 09:10:00,37.1,2.7,30.33,WSW,248,2.0,2.0,23,0.00,,FEW250,0.00,VWS V14.01,2013-12-19 14:10:00,
2013-12-19 09:15:00,38.5,9.0,30.33,WSW,248,2.0,2.0,29,0.00,,FEW250,0.00,VWS V14.01,2013-12-19 14:15:00,
2013-12-19 09:20:00,40.0,13.2,30.33,South,180,2.0,2.0,33,0.00,,FEW250,0.00,VWS V14.01,2013-12-19 14:20:00,
2013-12-19 09:25:00,41.4,18.3,30.33,SE,135,2.0,2.0,39,0.00,,FEW250,0.00,VWS V14.01,2013-12-19 14:25:00,
2013-12-19 09:30:00,42.1,23.3,30.33,SSE,158,2.2,2.2,47,0.00,,FEW250,0.00,VWS V14.01,2013-12-19 14:30:00,
2013-12-19 09:35:00,42.1,24.3,30.33,SW,225,2.4,2.4,49,0.00,,FEW250,0.00,VWS V14.01,2013-12-19 14:35:00,
2013-12-19 09:40:00,42.5,26.1,30.34,SW,225,3.6,3.6,52,0.00,,FEW250,0.00,VWS V14.01,2013-12-19 14:40:00,
2013-12-19 09:45:00,43.0,27.0,30.34,SSW,202,2.9,2.9,53,0.00,,FEW250,0.00,VWS V14.01,2013-12-19 14:45:00,
2013-12-19 09:50:00,43.6,28.1,30.34,South,180,2.7,3.1,54,0.00,,FEW250,0.00,VWS V14.01,2013-12-19 14:50:00,
2013-12-19 09:55:00,43.9,29.2,30.34,ESE,112,2.2,3.1,56,0.00,,FEW250,0.00,VWS V14.01,2013-12-19 14:55:00,
2013-12-19 10:00:00,44.3,29.6,30.33,SW,225,3.8,3.8,56,0.00,,CLR,0.00,VWS V14.01,2013-12-19 15:00:00,
2013-12-19 10:05:00,44.8,30.5,30.33,SW,225,4.5,4.5,57,0.00,,CLR,0.00,VWS V14.01,2013-12-19 15:05:00,
2013-12-19 10:10:00,45.9,31.5,30.33,WSW,248,4.2,4.2,57,0.00,,CLR,0.00,VWS V14.01,2013-12-19 15:10:00,
2013-12-19 10:15:00,46.4,32.0,30.33,WSW,248,2.4,2.4,57,0.00,,CLR,0.00,VWS V14.01,2013-12-19 15:15:00,
2013-12-19 10:20:00,47.3,32.8,30.33,SSW,202,7.4,7.4,57,0.00,,CLR,0.00,VWS V14.01,2013-12-19 15:20:00,
2013-12-19 10:25:00,47.7,32.8,30.33,SW,225,5.4,5.4,56,0.00,,CLR,0.00,VWS V14.01,2013-12-19 15:25:00,
2013-12-19 10:30:00,48.2,32.3,30.33,SSW,202,7.4,7.4,54,0.00,,CLR,0.00,VWS V14.01,2013-12-19 15:30:00,
2013-12-19 10:35:00,49.0,32.2,30.33,SSE,158,4.5,4.5,52,0.00,,CLR,0.00,VWS V14.01,2013-12-19 15:35:00,
2013-12-19 10:40:00,49.1,32.2,30.33,SW,225,3.8,3.8,52,0.00,,CLR,0.00,VWS V14.01,2013-12-19 15:40:00,
2013-12-19 10:45:00,49.3,31.5,30.33,West,270,3.1,5.1,50,0.00,,CLR,0.00,VWS V14.01,2013-12-19 15:45:00,
2013-12-19 10:50:00,49.7,32.3,30.34,SW,225,3.3,3.3,51,0.00,,CLR,0.00,VWS V14.01,2013-12-19 15:50:00,
2013-12-19 10:55:00,50.0,32.6,30.34,SW,225,4.0,4.0,51,0.00,,CLR,0.00,VWS V14.01,2013-12-19 15:55:00,
2013-12-19 11:01:00,50.8,32.3,30.34,SSW,202,5.1,5.8,49,0.00,,CLR,0.00,VWS V14.01,2013-12-19 16:01:00,
2013-12-19 11:06:00,50.9,31.9,30.33,WSW,248,4.5,4.5,48,0.00,,CLR,0.00,VWS V14.01,2013-12-19 16:06:00,
2013-12-19 11:11:00,51.3,31.2,30.34,SSW,202,7.4,7.4,46,0.00,,CLR,0.00,VWS V14.01,2013-12-19 16:11:00,
2013-12-19 11:16:00,51.8,31.7,30.33,SSE,158,2.2,2.2,46,0.00,,CLR,0.00,VWS V14.01,2013-12-19 16:16:00,
2013-12-19 11:21:00,52.2,31.0,30.33,SSW,202,3.8,3.8,44,0.00,,CLR,0.00,VWS V14.01,2013-12-19 16:21:00,
2013-12-19 11:26:00,52.6,31.3,30.33,West,270,6.7,6.7,44,0.00,,CLR,0.00,VWS V14.01,2013-12-19 16:26:00,
2013-12-19 11:31:00,52.9,31.6,30.33,SW,225,5.4,5.4,44,0.00,,CLR,0.00,VWS V14.01,2013-12-19 16:31:00,
2013-12-19 11:36:00,53.3,32.5,30.32,SW,225,8.5,8.5,45,0.00,,CLR,0.00,VWS V14.01,2013-12-19 16:36:00,
2013-12-19 11:41:00,53.5,32.1,30.32,SSW,202,5.1,5.1,44,0.00,,CLR,0.00,VWS V14.01,2013-12-19 16:41:00,
2013-12-19 11:46:00,53.6,31.7,30.32,SW,225,3.6,3.6,43,0.00,,CLR,0.00,VWS V14.01,2013-12-19 16:46:00,
2013-12-19 11:51:00,54.0,30.2,30.32,SW,225,5.4,5.4,40,0.00,,CLR,0.00,VWS V14.01,2013-12-19 16:51:00,
2013-12-19 11:56:00,54.5,30.7,30.31,SW,225,5.8,5.8,40,0.00,,CLR,0.00,VWS V14.01,2013-12-19 16:56:00,
2013-12-19 12:01:00,54.9,29.8,30.31,SE,135,4.2,4.2,38,0.00,,FEW250,0.00,VWS V14.01,2013-12-19 17:01:00,
2013-12-19 12:05:00,55.4,30.2,30.31,SE,135,3.1,3.1,38,0.00,,FEW250,0.00,VWS V14.01,2013-12-19 17:05:00,
2013-12-19 12:10:00,55.8,29.3,30.30,ESE,112,5.4,5.4,36,0.00,,FEW250,0.00,VWS V14.01,2013-12-19 17:10:00,
2013-12-19 12:15:00,56.5,29.9,30.30,SSW,202,3.3,3.3,36,0.00,,FEW250,0.00,VWS V14.01,2013-12-19 17:15:00,
2013-12-19 12:20:00,56.7,30.7,30.30,SSW,202,2.9,2.9,37,0.00,,FEW250,0.00,VWS V14.01,2013-12-19 17:20:00,
2013-12-19 12:25:00,56.9,28.8,30.30,SSE,158,3.3,3.3,34,0.00,,FEW250,0.00,VWS V14.01,2013-12-19 17:25:00,
2013-12-19 12:30:00,57.2,29.1,30.29,South,180,4.5,4.5,34,0.00,,FEW250,0.00,VWS V14.01,2013-12-19 17:30:00,
2013-12-19 12:35:00,57.4,30.7,30.29,SSW,202,5.1,5.1,36,0.00,,FEW250,0.00,VWS V14.01,2013-12-19 17:35:00,
2013-12-19 12:40:00,58.0,28.3,30.29,WSW,248,6.9,6.9,32,0.00,,FEW250,0.00,VWS V14.01,2013-12-19 17:40:00,
2013-12-19 12:45:00,58.1,29.9,30.28,SSW,202,6.0,6.0,34,0.00,,FEW250,0.00,VWS V14.01,2013-12-19 17:45:00,
2013-12-19 12:50:00,58.3,27.8,30.28,SW,225,8.0,8.0,31,0.00,,FEW250,0.00,VWS V14.01,2013-12-19 17:50:00,
2013-12-19 12:55:00,58.7,28.9,30.28,South,180,2.4,2.4,32,0.00,,FEW250,0.00,VWS V14.01,2013-12-19 17:55:00,
2013-12-19 13:00:00,59.0,26.8,30.28,SW,225,4.2,4.2,29,0.00,,CLR,0.00,VWS V14.01,2013-12-19 18:00:00,
2013-12-19 13:05:00,59.2,23.4,30.27,SSE,158,6.7,6.9,25,0.00,,CLR,0.00,VWS V14.01,2013-12-19 18:05:00,
2013-12-19 13:10:00,59.4,26.3,30.28,SSW,202,7.4,8.9,28,0.00,,CLR,0.00,VWS V14.01,2013-12-19 18:10:00,
2013-12-19 13:15:00,59.6,25.6,30.27,WSW,248,7.4,7.4,27,0.00,,CLR,0.00,VWS V14.01,2013-12-19 18:15:00,
2013-12-19 13:20:00,59.6,25.6,30.27,WSW,248,10.5,10.5,27,0.00,,CLR,0.00,VWS V14.01,2013-12-19 18:20:00,
2013-12-19 13:25:00,59.8,26.6,30.27,SSW,202,6.0,9.4,28,0.00,,CLR,0.00,VWS V14.01,2013-12-19 18:25:00,
2013-12-19 13:30:00,59.9,27.6,30.26,SW,225,8.9,8.9,29,0.00,,CLR,0.00,VWS V14.01,2013-12-19 18:30:00,
2013-12-19 13:35:00,59.9,28.4,30.26,WSW,248,7.6,7.6,30,0.00,,CLR,0.00,VWS V14.01,2013-12-19 18:35:00,
2013-12-19 13:40:00,60.1,27.8,30.26,SW,225,5.4,5.4,29,0.00,,CLR,0.00,VWS V14.01,2013-12-19 18:40:00,
2013-12-19 13:45:00,60.5,24.5,30.26,SE,135,6.0,6.0,25,0.00,,CLR,0.00,VWS V14.01,2013-12-19 18:45:00,
2013-12-19 13:50:00,60.7,26.5,30.26,SE,135,6.0,6.0,27,0.00,,CLR,0.00,VWS V14.01,2013-12-19 18:50:00,
2013-12-19 13:55:00,61.0,25.9,30.25,South,180,4.2,4.2,26,0.00,,CLR,0.00,VWS V14.01,2013-12-19 18:55:00,
2013-12-19 14:00:00,61.0,25.0,30.25,WSW,248,3.8,3.8,25,0.00,,BKN250,0.00,VWS V14.01,2013-12-19 19:00:00,
2013-12-19 14:05:00,61.2,27.0,30.25,West,270,8.9,8.9,27,0.00,,BKN250,0.00,VWS V14.01,2013-12-19 19:05:00,
2013-12-19 14:10:00,61.2,25.1,30.25,SSW,202,6.0,6.0,25,0.00,,BKN250,0.00,VWS V14.01,2013-12-19 19:10:00,
2013-12-19 14:15:00,61.2,27.9,30.24,WSW,248,5.4,5.4,28,0.00,,BKN250,0.00,VWS V14.01,2013-12-19 19:15:00,
2013-12-19 14:20:00,61.6,28.2,30.25,SSW,202,3.1,3.1,28,0.00,,BKN250,0.00,VWS V14.01,2013-12-19 19:20:00,
2013-12-19 14:25:00,61.7,28.3,30.24,SSW,202,6.0,6.0,28,0.00,,BKN250,0.00,VWS V14.01,2013-12-19 19:25:00,
2013-12-19 14:30:00,61.7,28.3,30.24,WSW,248,3.1,3.1,28,0.00,,BKN250,0.00,VWS V14.01,2013-12-19 19:30:00,
2013-12-19 14:35:00,61.9,28.5,30.24,South,180,2.7,2.7,28,0.00,,BKN250,0.00,VWS V14.01,2013-12-19 19:35:00,
2013-12-19 14:40:00,62.3,27.9,30.24,South,180,4.5,4.5,27,0.00,,BKN250,0.00,VWS V14.01,2013-12-19 19:40:00,
2013-12-19 14:45:00,62.3,28.8,30.24,SSE,158,5.4,5.4,28,0.00,,BKN250,0.00,VWS V14.01,2013-12-19 19:45:00,
2013-12-19 14:50:00,62.6,29.9,30.24,SSW,202,5.1,5.1,29,0.00,,BKN250,0.00,VWS V14.01,2013-12-19 19:50:00,
2013-12-19 14:55:00,62.3,28.8,30.24,SSW,202,8.9,8.9,28,0.00,,BKN250,0.00,VWS V14.01,2013-12-19 19:55:00,
2013-12-19 15:00:00,61.9,28.5,30.24,SSW,202,3.3,4.5,28,0.00,,CLR,0.00,VWS V14.01,2013-12-19 20:00:00,
2013-12-19 15:05:00,61.6,29.1,30.24,SW,225,7.4,7.4,29,0.00,,CLR,0.00,VWS V14.01,2013-12-19 20:05:00,
2013-12-19 15:10:00,61.4,27.1,30.24,SSE,158,5.6,5.6,27,0.00,,CLR,0.00,VWS V14.01,2013-12-19 20:10:00,
2013-12-19 15:15:00,61.6,28.2,30.24,SE,135,3.3,3.3,28,0.00,,CLR,0.00,VWS V14.01,2013-12-19 20:15:00,
2013-12-19 15:20:00,61.6,29.1,30.24,SW,225,6.7,6.7,29,0.00,,CLR,0.00,VWS V14.01,2013-12-19 20:20:00,
2013-12-19 15:25:00,61.6,29.1,30.24,SSE,158,3.3,3.3,29,0.00,,CLR,0.00,VWS V14.01,2013-12-19 20:25:00,
2013-12-19 15:30:00,61.7,29.1,30.24,SW,225,4.7,4.7,29,0.00,,CLR,0.00,VWS V14.01,2013-12-19 20:30:00,
2013-12-19 15:35:00,61.6,29.1,30.24,SW,225,3.8,3.8,29,0.00,,CLR,0.00,VWS V14.01,2013-12-19 20:35:00,
2013-12-19 15:40:00,61.4,28.9,30.24,SW,225,5.4,5.4,29,0.00,,CLR,0.00,VWS V14.01,2013-12-19 20:40:00,
2013-12-19 15:45:00,61.2,30.4,30.23,SSW,202,4.7,4.7,31,0.00,,CLR,0.00,VWS V14.01,2013-12-19 20:45:00,
2013-12-19 15:50:00,60.8,30.0,30.24,SW,225,2.2,2.2,31,0.00,,CLR,0.00,VWS V14.01,2013-12-19 20:50:00,
2013-12-19 15:55:00,60.8,28.4,30.24,SE,135,2.7,2.7,29,0.00,,CLR,0.00,VWS V14.01,2013-12-19 20:55:00,
2013-12-19 16:00:00,60.7,29.1,30.24,SSW,202,2.2,2.2,30,0.00,,BKN250,0.00,VWS V14.01,2013-12-19 21:00:00,
2013-12-19 16:05:00,60.5,29.7,30.25,SE,135,2.9,2.9,31,0.00,,BKN250,0.00,VWS V14.01,2013-12-19 21:05:00,
2013-12-19 16:10:00,60.1,29.4,30.24,SE,135,2.0,2.4,31,0.00,,BKN250,0.00,VWS V14.01,2013-12-19 21:10:00,
2013-12-19 16:15:00,60.1,30.2,30.24,ESE,112,2.9,2.9,32,0.00,,BKN250,0.00,VWS V14.01,2013-12-19 21:15:00,
2013-12-19 16:20:00,59.8,29.9,30.24,SE,135,2.0,2.0,32,0.00,,BKN250,0.00,VWS V14.01,2013-12-19 21:20:00,
2013-12-19 16:25:00,59.6,30.5,30.25,SE,135,2.0,2.0,33,0.00,,BKN250,0.00,VWS V14.01,2013-12-19 21:25:00,
2013-12-19 16:30:00,59.4,30.3,30.25,SE,135,2.0,2.0,33,0.00,,BKN250,0.00,VWS V14.01,2013-12-19 21:30:00,
2013-12-19 16:35:00,59.0,30.0,30.25,SE,135,2.0,2.0,33,0.00,,BKN250,0.00,VWS V14.01,2013-12-19 21:35:00,
2013-12-19 16:40:00,58.7,30.4,30.24,SE,135,2.0,2.0,34,0.00,,BKN250,0.00,VWS V14.01,2013-12-19 21:40:00,
2013-12-19 16:45:00,58.3,30.1,30.25,SSE,158,2.2,2.2,34,0.00,,BKN250,0.00,VWS V14.01,2013-12-19 21:45:00,
2013-12-19 16:50:00,58.0,29.8,30.25,SE,135,2.0,2.0,34,0.00,,BKN250,0.00,VWS V14.01,2013-12-19 21:50:00,
2013-12-19 16:55:00,58.0,29.8,30.25,SSE,158,2.4,2.4,34,0.00,,BKN250,0.00,VWS V14.01,2013-12-19 21:55:00,
2013-12-19 17:00:00,57.8,30.4,30.25,SSE,158,2.4,2.4,35,0.00,,OVC250,0.00,VWS V14.01,2013-12-19 22:00:00,
2013-12-19 17:05:00,57.4,30.0,30.25,SSE,158,2.2,2.2,35,0.00,,OVC250,0.00,VWS V14.01,2013-12-19 22:05:00,
2013-12-19 17:10:00,57.1,30.4,30.25,SW,225,2.7,2.7,36,0.00,,OVC250,0.00,VWS V14.01,2013-12-19 22:10:00,
2013-12-19 17:15:00,56.7,30.1,30.25,SW,225,4.0,4.0,36,0.00,,OVC250,0.00,VWS V14.01,2013-12-19 22:15:00,
2013-12-19 17:20:00,56.5,29.9,30.26,South,180,4.5,4.5,36,0.00,,OVC250,0.00,VWS V14.01,2013-12-19 22:20:00,
2013-12-19 17:25:00,56.2,29.6,30.26,SSW,202,2.4,2.4,36,0.00,,OVC250,0.00,VWS V14.01,2013-12-19 22:25:00,
2013-12-19 17:30:00,55.8,29.3,30.26,SSW,202,2.0,2.0,36,0.00,,OVC250,0.00,VWS V14.01,2013-12-19 22:30:00,
2013-12-19 17:35:00,55.6,29.8,30.26,WSW,248,2.9,2.9,37,0.00,,OVC250,0.00,VWS V14.01,2013-12-19 22:35:00,
2013-12-19 17:40:00,55.3,29.5,30.26,SSW,202,2.7,2.7,37,0.00,,OVC250,0.00,VWS V14.01,2013-12-19 22:40:00,
2013-12-19 17:45:00,54.9,29.1,30.26,SSW,202,2.0,2.0,37,0.00,,OVC250,0.00,VWS V14.01,2013-12-19 22:45:00,
2013-12-19 17:50:00,54.5,28.8,30.26,SSW,202,2.0,2.0,37,0.00,,OVC250,0.00,VWS V14.01,2013-12-19 22:50:00,
2013-12-19 17:55:00,54.2,28.5,30.26,SSW,202,2.0,2.0,37,0.00,,OVC250,0.00,VWS V14.01,2013-12-19 22:55:00,
2013-12-19 18:00:00,53.6,28.6,30.27,SSW,202,2.0,2.0,38,0.00,,BKN250,0.00,VWS V14.01,2013-12-19 23:00:00,
2013-12-19 18:05:00,53.5,29.2,30.26,SSW,202,2.0,2.0,39,0.00,,BKN250,0.00,VWS V14.01,2013-12-19 23:05:00,
2013-12-19 18:10:00,53.1,28.8,30.26,SSW,202,2.0,2.0,39,0.00,,BKN250,0.00,VWS V14.01,2013-12-19 23:10:00,
2013-12-19 18:15:00,52.9,28.6,30.26,SSW,202,2.0,2.0,39,0.00,,BKN250,0.00,VWS V14.01,2013-12-19 23:15:00,
2013-12-19 18:20:00,52.2,28.6,30.26,SSW,202,2.0,2.0,40,0.00,,BKN250,0.00,VWS V14.01,2013-12-19 23:20:00,
2013-12-19 18:25:00,51.8,28.3,30.26,SSW,202,2.0,2.0,40,0.00,,BKN250,0.00,VWS V14.01,2013-12-19 23:25:00,
2013-12-19 18:30:00,51.3,28.4,30.26,SSW,202,2.0,2.0,41,0.00,,BKN250,0.00,VWS V14.01,2013-12-19 23:30:00,
2013-12-19 18:35:00,50.8,28.0,30.26,SSW,202,2.0,2.0,41,0.00,,BKN250,0.00,VWS V14.01,2013-12-19 23:35:00,
2013-12-19 18:40:00,50.6,28.4,30.26,SSW,202,2.0,2.0,42,0.00,,BKN250,0.00,VWS V14.01,2013-12-19 23:40:00,
2013-12-19 18:45:00,50.0,27.8,30.26,SSW,202,2.0,2.0,42,0.00,,BKN250,0.00,VWS V14.01,2013-12-19 23:45:00,
2013-12-19 18:50:00,49.7,27.6,30.26,SSW,202,2.0,2.0,42,0.00,,BKN250,0.00,VWS V14.01,2013-12-19 23:50:00,
2013-12-19 18:55:00,49.3,27.8,30.26,SSW,202,2.0,2.0,43,0.00,,BKN250,0.00,VWS V14.01,2013-12-19 23:55:00,
2013-12-19 19:00:00,49.0,27.5,30.26,SSW,202,2.0,2.0,43,0.00,,OVC250,0.00,VWS V14.01,2013-12-20 00:00:00,
2013-12-19 19:04:00,48.6,27.7,30.26,SSW,202,2.0,2.0,44,0.00,,OVC250,0.00,VWS V14.01,2013-12-20 00:04:00,
2013-12-19 19:09:00,48.4,27.5,30.26,SSW,202,2.0,2.0,44,0.00,,OVC250,0.00,VWS V14.01,2013-12-20 00:09:00,
2013-12-19 19:14:00,47.9,27.6,30.26,SSW,202,2.0,2.0,45,0.00,,OVC250,0.00,VWS V14.01,2013-12-20 00:14:00,
2013-12-19 19:19:00,47.7,27.4,30.26,SSW,202,2.0,2.0,45,0.00,,OVC250,0.00,VWS V14.01,2013-12-20 00:19:00,
2013-12-19 19:24:00,47.5,27.8,30.26,SSW,202,2.0,2.0,46,0.00,,OVC250,0.00,VWS V14.01,2013-12-20 00:24:00,
2013-12-19 19:29:00,47.2,28.0,30.26,South,180,2.0,2.0,47,0.00,,OVC250,0.00,VWS V14.01,2013-12-20 00:29:00,
2013-12-19 19:34:00,47.2,28.0,30.26,South,180,2.0,2.0,47,0.00,,OVC250,0.00,VWS V14.01,2013-12-20 00:34:00,
2013-12-19 19:39:00,46.8,27.6,30.26,South,180,2.0,2.0,47,0.00,,OVC250,0.00,VWS V14.01,2013-12-20 00:39:00,
2013-12-19 19:44:00,46.8,27.6,30.26,SW,225,2.2,2.2,47,0.00,,OVC250,0.00,VWS V14.01,2013-12-20 00:44:00,
2013-12-19 19:49:00,46.8,28.2,30.26,SW,225,2.0,2.0,48,0.00,,OVC250,0.00,VWS V14.01,2013-12-20 00:49:00,
2013-12-19 19:54:00,46.6,28.0,30.26,SW,225,2.0,2.0,48,0.00,,OVC250,0.00,VWS V14.01,2013-12-20 00:54:00,
2013-12-19 19:59:00,46.6,28.0,30.26,SW,225,2.0,2.0,48,0.00,,SCT250,0.00,VWS V14.01,2013-12-20 00:59:00,
2013-12-19 20:04:00,46.4,27.8,30.25,SW,225,2.0,2.0,48,0.00,,SCT250,0.00,VWS V14.01,2013-12-20 01:04:00,
2013-12-19 20:09:00,46.3,28.2,30.25,SW,225,2.0,2.0,49,0.00,,SCT250,0.00,VWS V14.01,2013-12-20 01:09:00,
2013-12-19 20:14:00,46.1,28.0,30.25,SW,225,2.0,2.0,49,0.00,,SCT250,0.00,VWS V14.01,2013-12-20 01:14:00,
2013-12-19 20:19:00,45.7,28.1,30.26,SW,225,2.0,2.0,50,0.00,,SCT250,0.00,VWS V14.01,2013-12-20 01:19:00,
2013-12-19 20:24:00,45.5,28.0,30.25,SW,225,2.0,2.0,50,0.00,,SCT250,0.00,VWS V14.01,2013-12-20 01:24:00,
2013-12-19 20:29:00,45.4,27.9,30.25,SW,225,2.0,2.0,50,0.00,,SCT250,0.00,VWS V14.01,2013-12-20 01:29:00,
2013-12-19 20:34:00,45.2,28.2,30.25,SW,225,2.0,2.0,51,0.00,,SCT250,0.00,VWS V14.01,2013-12-20 01:34:00,
2013-12-19 20:39:00,45.0,28.0,30.25,SW,225,2.0,2.0,51,0.00,,SCT250,0.00,VWS V14.01,2013-12-20 01:39:00,
2013-12-19 20:44:00,44.8,28.3,30.25,SW,225,2.0,2.0,52,0.00,,SCT250,0.00,VWS V14.01,2013-12-20 01:44:00,
2013-12-19 20:49:00,44.6,28.1,30.25,SW,225,2.0,2.0,52,0.00,,SCT250,0.00,VWS V14.01,2013-12-20 01:49:00,
2013-12-19 20:54:00,44.6,28.1,30.25,SW,225,2.0,2.0,52,0.00,,SCT250,0.00,VWS V14.01,2013-12-20 01:54:00,
2013-12-19 20:59:00,44.6,28.1,30.25,South,180,2.0,2.0,52,0.00,,SCT250,0.00,VWS V14.01,2013-12-20 01:59:00,
2013-12-19 21:04:00,44.6,28.1,30.25,South,180,2.0,2.0,52,0.00,,SCT250,0.00,VWS V14.01,2013-12-20 02:04:00,
2013-12-19 21:09:00,44.8,28.7,30.25,SSE,158,2.0,2.0,53,0.00,,SCT250,0.00,VWS V14.01,2013-12-20 02:09:00,
2013-12-19 21:14:00,45.0,28.9,30.25,SSE,158,2.4,2.4,53,0.00,,SCT250,0.00,VWS V14.01,2013-12-20 02:14:00,
2013-12-19 21:19:00,45.0,28.9,30.25,South,180,2.0,2.0,53,0.00,,SCT250,0.00,VWS V14.01,2013-12-20 02:19:00,
2013-12-19 21:24:00,45.0,28.9,30.25,South,180,2.0,2.0,53,0.00,,SCT250,0.00,VWS V14.01,2013-12-20 02:24:00,
2013-12-19 21:29:00,45.0,28.5,30.25,South,180,2.0,2.0,52,0.00,,SCT250,0.00,VWS V14.01,2013-12-20 02:29:00,
2013-12-19 21:34:00,45.4,29.3,30.25,East,90,2.0,2.0,53,0.00,,SCT250,0.00,VWS V14.01,2013-12-20 02:34:00,
2013-12-19 21:39:00,45.4,28.8,30.25,SW,225,2.2,2.2,52,0.00,,SCT250,0.00,VWS V14.01,2013-12-20 02:39:00,
2013-12-19 21:44:00,45.5,28.9,30.25,SW,225,2.0,2.0,52,0.00,,SCT250,0.00,VWS V14.01,2013-12-20 02:44:00,
2013-12-19 21:49:00,45.5,28.9,30.25,SSW,202,2.0,2.0,52,0.00,,SCT250,0.00,VWS V14.01,2013-12-20 02:49:00,
2013-12-19 21:54:00,45.4,28.8,30.25,SSW,202,2.0,2.0,52,0.00,,SCT250,0.00,VWS V14.01,2013-12-20 02:54:00,
2013-12-19 21:59:00,45.2,29.1,30.25,SSW,202,2.0,2.0,53,0.00,,BKN250,0.00,VWS V14.01,2013-12-20 02:59:00,
2013-12-19 22:04:00,45.0,28.9,30.25,SSW,202,2.0,2.0,53,0.00,,BKN250,0.00,VWS V14.01,2013-12-20 03:04:00,
2013-12-19 22:09:00,44.8,28.7,30.25,SSW,202,2.0,2.0,53,0.00,,BKN250,0.00,VWS V14.01,2013-12-20 03:09:00,
2013-12-19 22:14:00,44.6,28.5,30.25,SW,225,2.0,2.0,53,0.00,,BKN250,0.00,VWS V14.01,2013-12-20 03:14:00,
2013-12-19 22:19:00,44.6,28.5,30.25,SSW,202,2.4,2.4,53,0.00,,BKN250,0.00,VWS V14.01,2013-12-20 03:19:00,
2013-12-19 22:24:00,44.5,28.5,30.26,SSW,202,2.4,2.4,53,0.00,,BKN250,0.00,VWS V14.01,2013-12-20 03:24:00,
2013-12-19 22:29:00,44.6,28.5,30.26,SSW,202,2.0,2.0,53,0.00,,BKN250,0.00,VWS V14.01,2013-12-20 03:29:00,
2013-12-19 22:34:00,44.6,28.5,30.26,SSW,202,2.4,2.4,53,0.00,,BKN250,0.00,VWS V14.01,2013-12-20 03:34:00,
2013-12-19 22:39:00,44.8,28.7,30.26,SSW,202,2.0,2.0,53,0.00,,BKN250,0.00,VWS V14.01,2013-12-20 03:39:00,
2013-12-19 22:44:00,44.8,29.2,30.26,SSW,202,2.4,2.4,54,0.00,,BKN250,0.00,VWS V14.01,2013-12-20 03:44:00,
2013-12-19 22:49:00,45.0,29.4,30.26,SSW,202,2.0,2.0,54,0.00,,BKN250,0.00,VWS V14.01,2013-12-20 03:49:00,
2013-12-19 22:54:00,44.8,29.2,30.26,SW,225,2.0,2.0,54,0.00,,BKN250,0.00,VWS V14.01,2013-12-20 03:54:00,
2013-12-19 22:59:00,44.8,28.7,30.26,SSE,158,2.0,2.0,53,0.00,,BKN250,0.00,VWS V14.01,2013-12-20 03:59:00,
2013-12-19 23:04:00,44.6,28.5,30.26,SSW,202,2.0,2.0,53,0.00,,BKN250,0.00,VWS V14.01,2013-12-20 04:04:00,
2013-12-19 23:09:00,44.5,28.9,30.26,SW,225,2.0,2.0,54,0.00,,BKN250,0.00,VWS V14.01,2013-12-20 04:09:00,
2013-12-19 23:14:00,44.3,28.7,30.26,SW,225,2.0,2.0,54,0.00,,BKN250,0.00,VWS V14.01,2013-12-20 04:14:00,
2013-12-19 23:19:00,43.9,28.4,30.26,SW,225,2.0,2.0,54,0.00,,BKN250,0.00,VWS V14.01,2013-12-20 04:19:00,
2013-12-19 23:24:00,43.7,28.6,30.26,SW,225,2.0,2.0,55,0.00,,BKN250,0.00,VWS V14.01,2013-12-20 04:24:00,
2013-12-19 23:29:00,43.6,28.5,30.26,SW,225,2.0,2.0,55,0.00,,BKN250,0.00,VWS V14.01,2013-12-20 04:29:00,
2013-12-19 23:34:00,43.2,29.0,30.25,SW,225,2.0,2.0,57,0.00,,BKN250,0.00,VWS V14.01,2013-12-20 04:34:00,
2013-12-19 23:39:00,42.8,28.2,30.25,SW,225,2.0,2.0,56,0.00,,BKN250,0.00,VWS V14.01,2013-12-20 04:39:00,
2013-12-19 23:44:00,42.7,28.5,30.25,SW,225,2.0,2.0,57,0.00,,BKN250,0.00,VWS V14.01,2013-12-20 04:44:00,
2013-12-19 23:49:00,42.5,28.4,30.25,SW,225,2.0,2.0,57,0.00,,BKN250,0.00,VWS V14.01,2013-12-20 04:49:00,
2013-12-19 23:54:00,42.3,28.2,30.25,SW,225,2.0,2.0,57,0.00,,BKN250,0.00,VWS V14.01,2013-12-20 04:54:00,
2013-12-19 23:59:00,42.3,28.2,30.25,WSW,248,2.4,2.4,57,0.00,,OVC250,0.00,VWS V14.01,2013-12-20 04:59:00,